Time;durP1;ratioP1;P1;durP2;ratioP2;P2;SDS_P1;SDS_P2;PMS_P1;PMS_P2;Temp;Humidity;BMP_temperature;BMP_pressure;BME280_temperature;BME280_humidity;BME280_pressure;Samples;Min_cycle;Max_cycle;Signal;HPM_P1;HPM_P2
2022/11/08 00:01:57;;;;;;;7.05;5.32;;;;;;;;;;5064179;28;20192;-70
2022/11/08 00:04:24;;;;;;;10.15;5.63;;;;;;;;;;5063940;28;20197;-70
2022/11/08 00:15:07;;;;;;;5.30;4.78;;;;;;;;;;5063790;28;20196;-70
2022/11/08 00:17:33;;;;;;;5.30;4.70;;;;;;;;;;5063544;28;20204;-70
2022/11/08 00:19:59;;;;;;;4.70;4.30;;;;;;;;;;5063390;28;20375;-70
2022/11/08 00:22:29;;;;;;;6.93;4.47;;;;;;;;;;5063653;28;20481;-70
2022/11/08 00:24:55;;;;;;;7.28;4.93;;;;;;;;;;5063592;28;20219;-70
2022/11/08 00:27:22;;;;;;;4.47;4.07;;;;;;;;;;5063479;28;20201;-70
2022/11/08 00:29:49;;;;;;;6.10;4.40;;;;;;;;;;5063171;28;20365;-70
2022/11/08 00:32:16;;;;;;;8.35;4.45;;;;;;;;;;5063212;28;20201;-70
2022/11/08 00:34:42;;;;;;;5.07;4.50;;;;;;;;;;5063391;28;20217;-70
2022/11/08 00:37:09;;;;;;;7.03;4.10;;;;;;;;;;5063425;28;20189;-70
2022/11/08 00:39:37;;;;;;;7.22;4.50;;;;;;;;;;5063044;28;20204;-70
2022/11/08 00:42:03;;;;;;;4.80;3.65;;;;;;;;;;5063220;28;20423;-70
2022/11/08 00:44:30;;;;;;;4.18;3.72;;;;;;;;;;5063474;28;20268;-70
2022/11/08 00:46:56;;;;;;;4.32;3.45;;;;;;;;;;5062975;28;20203;-70
2022/11/08 00:49:22;;;;;;;4.35;3.90;;;;;;;;;;5063057;28;20198;-70
2022/11/08 00:51:49;;;;;;;4.22;3.83;;;;;;;;;;5062853;28;20212;-72
2022/11/08 00:54:17;;;;;;;3.40;3.10;;;;;;;;;;5062961;28;20275;-70
2022/11/08 00:56:45;;;;;;;3.92;3.63;;;;;;;;;;5062937;28;20197;-70
2022/11/08 00:59:12;;;;;;;5.68;4.13;;;;;;;;;;5062285;28;20197;-70
2022/11/08 01:01:39;;;;;;;5.88;3.92;;;;;;;;;;5062762;28;20197;-70
2022/11/08 01:04:05;;;;;;;3.55;3.20;;;;;;;;;;5062873;28;20531;-70
2022/11/08 01:06:31;;;;;;;4.22;3.88;;;;;;;;;;5062584;28;20204;-70
2022/11/08 01:08:58;;;;;;;5.57;3.92;;;;;;;;;;5062562;28;20204;-70
2022/11/08 01:11:25;;;;;;;4.32;3.92;;;;;;;;;;5062517;28;20207;-70
2022/11/08 01:13:55;;;;;;;5.05;4.50;;;;;;;;;;5062393;28;20231;-70
2022/11/08 01:16:23;;;;;;;9.35;4.60;;;;;;;;;;5062787;28;20219;-69
2022/11/08 01:18:50;;;;;;;6.93;4.00;;;;;;;;;;5062106;28;20205;-70
2022/11/08 01:21:17;;;;;;;5.72;4.45;;;;;;;;;;5062487;28;20197;-70
2022/11/08 01:23:44;;;;;;;5.60;4.10;;;;;;;;;;5062322;28;20201;-70
2022/11/08 01:26:11;;;;;;;5.97;4.15;;;;;;;;;;5062208;28;20204;-70
2022/11/08 01:28:37;;;;;;;5.13;3.58;;;;;;;;;;5061937;28;20217;-70
2022/11/08 01:31:05;;;;;;;5.00;4.20;;;;;;;;;;5062399;28;20205;-70
2022/11/08 01:33:32;;;;;;;4.82;4.30;;;;;;;;;;5062070;28;20228;-70
2022/11/08 01:35:58;;;;;;;4.05;3.67;;;;;;;;;;5062170;28;20505;-70
2022/11/08 01:38:24;;;;;;;5.03;4.30;;;;;;;;;;5061897;28;20220;-69
2022/11/08 01:40:51;;;;;;;4.30;4.00;;;;;;;;;;5062052;28;20193;-69
2022/11/08 01:43:26;;;;;;;7.00;4.10;;;;;;;;;;5061971;28;20207;-69
2022/11/08 01:46:16;;;;;;;5.28;4.32;;;;;;;;;;5061932;28;20207;-69
2022/11/08 01:48:46;;;;;;;4.53;4.13;;;;;;;;;;5051065;28;20527;-69
2022/11/08 01:51:14;;;;;;;7.22;4.45;;;;;;;;;;5061889;28;20211;-69
2022/11/08 01:53:40;;;;;;;4.07;3.83;;;;;;;;;;5061787;28;20221;-69
2022/11/08 01:56:08;;;;;;;5.85;4.03;;;;;;;;;;5062070;28;20805;-69
2022/11/08 01:58:36;;;;;;;4.57;4.20;;;;;;;;;;5061726;28;20203;-69
2022/11/08 02:01:02;;;;;;;5.07;4.10;;;;;;;;;;5061909;28;20394;-69
2022/11/08 02:03:31;;;;;;;7.80;4.28;;;;;;;;;;5061822;28;20215;-69
2022/11/08 02:06:00;;;;;;;6.38;4.93;;;;;;;;;;5061617;28;20203;-69
2022/11/08 02:08:29;;;;;;;7.10;4.30;;;;;;;;;;5061716;28;20550;-69
2022/11/08 02:10:55;;;;;;;5.75;3.92;;;;;;;;;;5061880;28;20197;-69
2022/11/08 02:13:23;;;;;;;5.20;4.38;;;;;;;;;;5061688;28;20212;-69
2022/11/08 02:15:49;;;;;;;5.05;4.53;;;;;;;;;;5061763;28;20391;-70
2022/11/08 02:18:16;;;;;;;5.82;4.22;;;;;;;;;;5060701;28;20205;-69
2022/11/08 02:20:46;;;;;;;6.88;4.30;;;;;;;;;;5061472;28;20197;-69
2022/11/08 02:23:17;;;;;;;5.65;4.40;;;;;;;;;;5061519;28;20193;-69
2022/11/08 02:25:44;;;;;;;5.05;4.63;;;;;;;;;;5061563;28;20496;-69
2022/11/08 02:28:11;;;;;;;5.63;4.53;;;;;;;;;;5061122;28;20216;-69
2022/11/08 02:30:37;;;;;;;5.50;4.70;;;;;;;;;;5061594;28;20197;-69
2022/11/08 02:33:13;;;;;;;6.82;4.97;;;;;;;;;;5061757;28;20197;-69
2022/11/08 02:35:40;;;;;;;5.15;4.72;;;;;;;;;;5061954;28;20242;-69
2022/11/08 02:38:06;;;;;;;7.28;4.93;;;;;;;;;;5061485;28;20201;-69
2022/11/08 02:40:45;;;;;;;4.50;4.10;;;;;;;;;;5061531;28;20201;-69
2022/11/08 02:43:11;;;;;;;5.28;4.57;;;;;;;;;;5061738;28;20512;-70
2022/11/08 02:45:38;;;;;;;5.70;4.50;;;;;;;;;;5061401;28;20208;-70
2022/11/08 02:48:04;;;;;;;6.53;4.47;;;;;;;;;;5061221;28;20197;-70
2022/11/08 02:50:31;;;;;;;9.50;4.55;;;;;;;;;;5061383;28;20197;-70
2022/11/08 02:52:57;;;;;;;4.35;3.95;;;;;;;;;;5061335;28;20205;-70
2022/11/08 02:55:23;;;;;;;4.75;4.32;;;;;;;;;;5061206;28;20217;-70
2022/11/08 02:57:51;;;;;;;5.07;4.60;;;;;;;;;;5061185;28;20526;-70
2022/11/08 03:00:17;;;;;;;7.68;4.63;;;;;;;;;;5061203;28;20203;-70
2022/11/08 03:02:44;;;;;;;6.00;4.75;;;;;;;;;;5061282;28;20204;-70
2022/11/08 03:05:10;;;;;;;7.07;4.75;;;;;;;;;;5061126;28;20193;-70
2022/11/08 03:07:36;;;;;;;5.53;4.85;;;;;;;;;;5061420;28;20515;-70
2022/11/08 03:10:02;;;;;;;5.15;4.70;;;;;;;;;;5061086;28;20197;-70
2022/11/08 03:12:29;;;;;;;10.48;4.63;;;;;;;;;;5061233;28;20419;-70
2022/11/08 03:14:56;;;;;;;7.38;4.53;;;;;;;;;;5061411;28;20221;-69
2022/11/08 03:17:22;;;;;;;5.05;4.55;;;;;;;;;;5061305;28;20201;-69
2022/11/08 03:19:49;;;;;;;6.68;4.50;;;;;;;;;;5061162;28;20223;-69
2022/11/08 03:22:15;;;;;;;5.68;4.68;;;;;;;;;;5063404;28;20408;-69
2022/11/08 03:24:41;;;;;;;4.68;4.35;;;;;;;;;;5064769;28;20201;-69
2022/11/08 03:27:08;;;;;;;4.40;4.10;;;;;;;;;;5064388;28;20197;-69
2022/11/08 03:29:34;;;;;;;6.30;3.78;;;;;;;;;;5064631;28;20538;-69
2022/11/08 03:32:02;;;;;;;6.78;4.38;;;;;;;;;;5064947;28;20406;-69
2022/11/08 03:34:28;;;;;;;4.72;4.25;;;;;;;;;;5064439;28;20283;-69
2022/11/08 03:36:54;;;;;;;5.70;4.00;;;;;;;;;;5064212;28;20426;-69
2022/11/08 03:39:20;;;;;;;4.43;4.03;;;;;;;;;;5064339;28;20205;-69
2022/11/08 03:41:47;;;;;;;3.83;3.60;;;;;;;;;;5064510;28;20198;-69
2022/11/08 03:44:13;;;;;;;4.25;3.85;;;;;;;;;;5064324;28;20204;-69
2022/11/08 03:46:39;;;;;;;4.85;3.70;;;;;;;;;;5064267;28;20197;-69
2022/11/08 03:49:07;;;;;;;4.15;3.83;;;;;;;;;;5064061;28;20197;-69
2022/11/08 03:51:33;;;;;;;4.72;4.32;;;;;;;;;;5064017;28;20523;-69
2022/11/08 03:53:59;;;;;;;4.78;4.32;;;;;;;;;;5064296;28;20220;-69
2022/11/08 03:56:26;;;;;;;4.82;4.43;;;;;;;;;;5064145;28;20500;-69
2022/11/08 03:58:52;;;;;;;4.95;4.50;;;;;;;;;;5063751;28;20204;-69
2022/11/08 04:01:18;;;;;;;5.57;5.07;;;;;;;;;;5063986;28;20204;-69
2022/11/08 04:03:45;;;;;;;5.22;4.25;;;;;;;;;;5063898;28;20481;-69
2022/11/08 04:06:12;;;;;;;4.60;4.30;;;;;;;;;;5063794;28;20511;-69
2022/11/08 04:08:39;;;;;;;5.20;4.80;;;;;;;;;;5063744;28;20247;-69
2022/11/08 04:16:30;;;;;;;10.30;7.88;;;;;;;;;;5063526;28;20303;-69
2022/11/08 04:21:43;;;;;;;6.85;5.65;;;;;;;;;;5063660;28;20192;-69
2022/11/08 04:24:09;;;;;;;6.53;5.97;;;;;;;;;;5063481;28;20200;-69
2022/11/08 04:26:35;;;;;;;9.02;5.88;;;;;;;;;;5063466;28;20515;-69
2022/11/08 04:29:02;;;;;;;6.55;5.90;;;;;;;;;;5063017;28;20244;-69
2022/11/08 04:31:28;;;;;;;6.72;6.03;;;;;;;;;;5063551;28;20243;-69
2022/11/08 04:33:55;;;;;;;6.30;5.32;;;;;;;;;;5061990;28;20213;-69
2022/11/08 04:36:21;;;;;;;7.90;6.07;;;;;;;;;;5063455;28;20423;-69
2022/11/08 04:38:49;;;;;;;6.07;5.47;;;;;;;;;;5063271;28;20197;-69
2022/11/08 04:41:16;;;;;;;9.43;6.10;;;;;;;;;;5063616;28;20205;-69
2022/11/08 04:43:43;;;;;;;5.57;5.07;;;;;;;;;;5062887;28;20197;-69
2022/11/08 04:46:10;;;;;;;6.35;5.55;;;;;;;;;;5063298;28;20212;-69
2022/11/08 04:48:37;;;;;;;6.30;5.63;;;;;;;;;;5062889;28;20193;-69
2022/11/08 04:51:04;;;;;;;6.05;5.50;;;;;;;;;;5063052;28;20272;-69
2022/11/08 04:53:30;;;;;;;6.03;5.32;;;;;;;;;;5062941;28;20457;-69
2022/11/08 04:56:02;;;;;;;6.10;4.90;;;;;;;;;;5062755;28;20193;-69
2022/11/08 04:58:32;;;;;;;5.57;4.95;;;;;;;;;;5062723;28;20211;-69
2022/11/08 05:00:59;;;;;;;8.60;4.57;;;;;;;;;;5063032;28;20201;-69
2022/11/08 05:03:25;;;;;;;7.78;4.85;;;;;;;;;;5062842;28;20231;-69
2022/11/08 05:05:51;;;;;;;6.30;5.25;;;;;;;;;;5062686;28;20195;-69
2022/11/08 05:08:18;;;;;;;5.50;5.00;;;;;;;;;;5062510;28;20504;-69
2022/11/08 05:10:44;;;;;;;6.85;5.60;;;;;;;;;;5062525;28;20220;-69
2022/11/08 05:13:11;;;;;;;6.43;5.47;;;;;;;;;;5062698;28;20201;-69
2022/11/08 05:15:38;;;;;;;6.60;5.90;;;;;;;;;;5062506;28;20220;-69
2022/11/08 05:18:04;;;;;;;6.03;5.45;;;;;;;;;;5062277;28;20389;-69
2022/11/08 05:23:23;;;;;;;9.50;5.88;;;;;;;;;;5062355;28;20541;-69
2022/11/08 05:25:50;;;;;;;7.70;5.63;;;;;;;;;;5062508;28;20192;-69
2022/11/08 05:28:17;;;;;;;6.13;5.53;;;;;;;;;;5062104;28;20233;-69
2022/11/08 05:30:44;;;;;;;10.40;6.20;;;;;;;;;;5062277;28;20197;-69
2022/11/08 05:33:12;;;;;;;10.57;6.82;;;;;;;;;;5062129;28;20219;-69
2022/11/08 05:35:38;;;;;;;13.25;6.68;;;;;;;;;;5062116;28;20213;-69
2022/11/08 05:38:05;;;;;;;9.25;7.15;;;;;;;;;;5061923;28;20204;-69
2022/11/08 05:40:32;;;;;;;11.63;7.30;;;;;;;;;;5062286;28;20189;-69
2022/11/08 05:42:58;;;;;;;12.73;7.70;;;;;;;;;;5062018;28;20243;-69
2022/11/08 05:45:26;;;;;;;11.30;7.00;;;;;;;;;;5061873;28;20492;-69
2022/11/08 05:47:53;;;;;;;13.68;7.40;;;;;;;;;;5061767;28;20204;-69
2022/11/08 05:50:19;;;;;;;10.90;7.05;;;;;;;;;;5061959;28;20221;-69
2022/11/08 05:52:46;;;;;;;12.40;7.40;;;;;;;;;;5061798;28;20201;-69
2022/11/08 05:55:12;;;;;;;14.15;7.78;;;;;;;;;;5062098;28;20221;-69
2022/11/08 05:57:42;;;;;;;18.70;8.35;;;;;;;;;;5061696;28;20197;-69
2022/11/08 06:00:09;;;;;;;18.27;8.23;;;;;;;;;;5061854;28;20235;-71
2022/11/08 06:02:37;;;;;;;16.38;8.30;;;;;;;;;;5061765;28;20531;-71
2022/11/08 06:05:04;;;;;;;15.98;9.75;;;;;;;;;;5061691;28;20276;-71
2022/11/08 06:07:30;;;;;;;14.80;8.63;;;;;;;;;;5061372;28;20243;-71
2022/11/08 06:09:57;;;;;;;15.85;8.43;;;;;;;;;;5061293;28;20513;-71
2022/11/08 06:12:23;;;;;;;17.38;8.77;;;;;;;;;;5061689;28;20204;-71
2022/11/08 06:14:49;;;;;;;12.88;8.70;;;;;;;;;;5061671;28;20521;-71
2022/11/08 06:17:15;;;;;;;13.55;8.55;;;;;;;;;;5061187;28;20372;-71
2022/11/08 06:19:43;;;;;;;17.55;9.18;;;;;;;;;;5061000;28;20213;-71
2022/11/08 06:22:10;;;;;;;17.52;8.20;;;;;;;;;;5061456;28;20197;-71
2022/11/08 06:24:36;;;;;;;12.30;8.23;;;;;;;;;;5061270;28;20193;-72
2022/11/08 06:27:02;;;;;;;15.13;8.70;;;;;;;;;;5061261;28;20400;-71
2022/11/08 06:29:28;;;;;;;15.52;8.02;;;;;;;;;;5060994;28;20217;-71
2022/11/08 06:31:55;;;;;;;10.98;8.23;;;;;;;;;;5061146;28;20213;-71
2022/11/08 06:34:21;;;;;;;12.52;8.13;;;;;;;;;;5061761;28;20216;-62
2022/11/08 06:36:49;;;;;;;16.83;8.02;;;;;;;;;;5061594;28;20316;-62
2022/11/08 06:39:15;;;;;;;11.23;8.20;;;;;;;;;;5061649;28;20406;-62
2022/11/08 06:41:41;;;;;;;8.35;7.40;;;;;;;;;;5060038;28;20365;-63
2022/11/08 06:44:08;;;;;;;14.27;7.13;;;;;;;;;;5043948;28;20286;-62
2022/11/08 06:46:34;;;;;;;18.58;7.57;;;;;;;;;;5055119;28;20213;-61
2022/11/08 06:49:00;;;;;;;11.75;7.00;;;;;;;;;;5050372;28;20206;-61
2022/11/08 06:51:26;;;;;;;15.10;6.70;;;;;;;;;;5037967;28;20213;-62
2022/11/08 06:53:54;;;;;;;15.80;8.35;;;;;;;;;;5035750;28;20986;-61
2022/11/08 06:56:20;;;;;;;13.73;8.07;;;;;;;;;;5050853;28;20536;-61
2022/11/08 06:58:46;;;;;;;12.20;7.35;;;;;;;;;;5039737;28;20209;-61
2022/11/08 07:01:13;;;;;;;14.18;7.80;;;;;;;;;;5046783;28;20213;-61
2022/11/08 07:03:39;;;;;;;12.45;8.15;;;;;;;;;;5057874;28;20213;-61
2022/11/08 07:06:06;;;;;;;15.50;7.57;;;;;;;;;;5057922;28;20207;-61
2022/11/08 07:08:32;;;;;;;12.95;8.27;;;;;;;;;;5052929;28;20219;-61
2022/11/08 07:11:00;;;;;;;12.20;8.60;;;;;;;;;;5046118;28;20240;-62
2022/11/08 07:13:26;;;;;;;12.80;8.30;;;;;;;;;;5058869;28;20216;-62
2022/11/08 07:15:56;;;;;;;12.30;8.50;;;;;;;;;;5058938;28;20220;-62
2022/11/08 07:18:22;;;;;;;13.45;8.13;;;;;;;;;;5059732;28;20409;-62
2022/11/08 07:20:49;;;;;;;13.73;7.50;;;;;;;;;;5066928;28;20380;-62
2022/11/08 07:23:15;;;;;;;10.57;7.20;;;;;;;;;;5048465;28;20277;-62
2022/11/08 07:25:41;;;;;;;8.88;6.97;;;;;;;;;;5043844;28;20401;-62
2022/11/08 07:28:13;;;;;;;12.27;7.47;;;;;;;;;;5040188;28;20220;-63
2022/11/08 07:30:39;;;;;;;18.27;7.00;;;;;;;;;;5042285;28;20381;-61
2022/11/08 07:33:05;;;;;;;11.05;6.32;;;;;;;;;;5052745;28;20221;-61
2022/11/08 07:35:33;;;;;;;7.50;6.13;;;;;;;;;;5039793;28;20237;-61
2022/11/08 07:37:59;;;;;;;7.82;6.30;;;;;;;;;;5058004;28;20205;-62
2022/11/08 07:40:26;;;;;;;6.50;5.90;;;;;;;;;;5049552;28;20213;-62
2022/11/08 07:42:52;;;;;;;8.25;6.00;;;;;;;;;;5057793;28;20204;-62
2022/11/08 07:45:20;;;;;;;7.47;5.95;;;;;;;;;;5042879;28;20208;-61
2022/11/08 07:47:46;;;;;;;7.40;6.03;;;;;;;;;;5038842;28;20214;-62
2022/11/08 07:50:12;;;;;;;11.48;6.15;;;;;;;;;;5050568;28;20474;-63
2022/11/08 07:52:38;;;;;;;9.68;6.03;;;;;;;;;;5045111;28;20214;-62
2022/11/08 07:55:05;;;;;;;11.10;5.60;;;;;;;;;;5052682;28;20239;-62
2022/11/08 07:57:31;;;;;;;9.00;5.97;;;;;;;;;;5049235;28;20218;-62
2022/11/08 07:59:58;;;;;;;6.97;5.88;;;;;;;;;;5037250;28;20213;-62
2022/11/08 08:02:25;;;;;;;11.98;6.00;;;;;;;;;;5037777;28;20214;-62
2022/11/08 08:04:52;;;;;;;11.30;6.55;;;;;;;;;;5057072;28;20254;-62
2022/11/08 08:07:18;;;;;;;9.43;5.88;;;;;;;;;;5051319;28;20248;-64
2022/11/08 08:09:44;;;;;;;6.65;5.78;;;;;;;;;;5050161;28;20219;-61
2022/11/08 08:12:11;;;;;;;8.50;5.95;;;;;;;;;;5057073;28;20236;-61
2022/11/08 08:14:37;;;;;;;9.00;6.43;;;;;;;;;;5052639;28;20522;-62
2022/11/08 08:17:03;;;;;;;7.70;6.75;;;;;;;;;;5041956;28;20558;-62
2022/11/08 08:19:31;;;;;;;9.80;6.85;;;;;;;;;;5055246;28;20220;-62
2022/11/08 08:21:57;;;;;;;9.93;6.63;;;;;;;;;;5067007;28;20208;-61
2022/11/08 08:24:25;;;;;;;10.38;7.15;;;;;;;;;;5056462;28;20221;-62
2022/11/08 08:26:51;;;;;;;10.98;6.45;;;;;;;;;;5047600;28;20220;-63
2022/11/08 08:29:17;;;;;;;9.70;6.50;;;;;;;;;;5037255;28;20229;-64
2022/11/08 08:31:44;;;;;;;9.88;7.35;;;;;;;;;;5043290;28;20217;-61
2022/11/08 08:34:10;;;;;;;8.02;6.75;;;;;;;;;;5044681;28;20213;-62
2022/11/08 08:36:38;;;;;;;12.00;6.57;;;;;;;;;;5048998;28;20228;-62
2022/11/08 08:39:04;;;;;;;11.57;7.25;;;;;;;;;;5053955;28;20209;-62
2022/11/08 08:41:30;;;;;;;11.50;6.35;;;;;;;;;;5057037;28;20220;-62
2022/11/08 08:43:57;;;;;;;11.82;6.72;;;;;;;;;;5055974;28;20547;-62
2022/11/08 08:46:23;;;;;;;11.38;7.15;;;;;;;;;;5056306;28;20220;-62
2022/11/08 08:48:49;;;;;;;8.48;7.18;;;;;;;;;;5055391;28;20546;-63
2022/11/08 08:51:15;;;;;;;10.35;6.55;;;;;;;;;;5056904;28;20421;-64
2022/11/08 08:53:43;;;;;;;10.30;6.05;;;;;;;;;;5045505;28;20217;-63
2022/11/08 08:56:09;;;;;;;8.60;6.22;;;;;;;;;;5038511;28;20245;-62
2022/11/08 08:58:36;;;;;;;7.35;5.88;;;;;;;;;;5037515;28;20214;-63
2022/11/08 09:01:03;;;;;;;7.95;5.65;;;;;;;;;;5048807;28;20228;-62
2022/11/08 09:03:29;;;;;;;9.38;5.70;;;;;;;;;;5056455;28;20232;-61
2022/11/08 09:05:56;;;;;;;11.15;5.35;;;;;;;;;;5056424;28;20255;-62
2022/11/08 09:08:23;;;;;;;6.80;5.40;;;;;;;;;;5036570;28;20537;-61
2022/11/08 09:10:54;;;;;;;8.90;5.57;;;;;;;;;;5055535;28;20216;-63
2022/11/08 09:13:20;;;;;;;8.77;6.60;;;;;;;;;;5040162;28;20217;-63
2022/11/08 09:15:46;;;;;;;7.93;5.78;;;;;;;;;;5052441;28;20560;-63
2022/11/08 09:18:13;;;;;;;11.05;5.50;;;;;;;;;;5036177;28;20422;-63
2022/11/08 09:20:39;;;;;;;7.13;5.10;;;;;;;;;;5036154;28;20210;-63
2022/11/08 09:23:05;;;;;;;6.10;5.10;;;;;;;;;;5041847;28;20217;-63
2022/11/08 09:25:31;;;;;;;8.43;4.88;;;;;;;;;;5055920;28;20410;-61
2022/11/08 09:27:59;;;;;;;6.38;5.00;;;;;;;;;;5038851;28;20236;-61
2022/11/08 09:30:26;;;;;;;5.32;4.80;;;;;;;;;;5045079;28;20524;-62
2022/11/08 09:32:53;;;;;;;6.25;4.82;;;;;;;;;;5044671;28;20217;-62
2022/11/08 09:35:19;;;;;;;7.10;5.00;;;;;;;;;;5056476;28;20434;-62
2022/11/08 09:37:45;;;;;;;7.97;5.25;;;;;;;;;;5055782;28;20204;-61
2022/11/08 09:40:15;;;;;;;5.07;4.72;;;;;;;;;;5055363;28;20531;-62
2022/11/08 09:42:49;;;;;;;4.88;4.47;;;;;;;;;;5041295;28;20206;-62
2022/11/08 09:45:24;;;;;;;5.00;4.60;;;;;;;;;;5052890;28;20427;-62
2022/11/08 09:47:54;;;;;;;8.20;4.95;;;;;;;;;;5056451;28;20219;-62
2022/11/08 09:50:22;;;;;;;5.47;4.35;;;;;;;;;;5055430;28;20228;-62
2022/11/08 09:52:51;;;;;;;7.07;5.03;;;;;;;;;;5055710;28;20220;-61
2022/11/08 09:55:22;;;;;;;5.18;4.60;;;;;;;;;;5055630;28;20237;-61
2022/11/08 09:57:57;;;;;;;5.65;4.78;;;;;;;;;;5041119;28;20214;-62
2022/11/08 10:00:25;;;;;;;7.22;4.53;;;;;;;;;;5037037;28;20425;-62
2022/11/08 10:02:51;;;;;;;5.22;4.65;;;;;;;;;;5055999;28;20513;-63
2022/11/08 10:05:18;;;;;;;5.30;4.80;;;;;;;;;;5055374;28;20221;-62
2022/11/08 10:07:49;;;;;;;6.38;4.80;;;;;;;;;;5048315;28;20213;-62
2022/11/08 10:10:27;;;;;;;4.65;3.88;;;;;;;;;;5055268;28;20259;-63
2022/11/08 10:12:57;;;;;;;4.10;3.72;;;;;;;;;;5054005;28;20544;-63
2022/11/08 10:15:29;;;;;;;5.03;4.05;;;;;;;;;;5055030;28;20232;-63
2022/11/08 10:18:04;;;;;;;4.63;4.22;;;;;;;;;;5054524;28;20223;-63
2022/11/08 10:20:36;;;;;;;4.75;4.22;;;;;;;;;;5055564;28;20238;-63
2022/11/08 10:23:10;;;;;;;10.00;4.50;;;;;;;;;;5041522;28;20214;-63
2022/11/08 10:25:38;;;;;;;4.72;3.50;;;;;;;;;;5034809;28;20512;-63
2022/11/08 10:28:24;;;;;;;7.88;3.72;;;;;;;;;;5034395;28;20237;-63
2022/11/08 10:30:53;;;;;;;5.70;4.68;;;;;;;;;;5035414;28;20528;-63
2022/11/08 10:33:22;;;;;;;10.57;4.80;;;;;;;;;;5048813;28;20220;-63
2022/11/08 10:35:51;;;;;;;6.93;4.25;;;;;;;;;;5059164;28;20459;-63
2022/11/08 10:38:18;;;;;;;6.57;4.45;;;;;;;;;;5054302;28;20271;-63
2022/11/08 10:40:49;;;;;;;7.35;4.50;;;;;;;;;;5041661;28;20276;-63
2022/11/08 10:43:18;;;;;;;5.05;4.60;;;;;;;;;;5038310;28;20539;-62
2022/11/08 10:45:45;;;;;;;9.00;4.90;;;;;;;;;;5046583;28;20433;-63
2022/11/08 10:48:12;;;;;;;6.38;4.40;;;;;;;;;;5058576;28;20213;-63
2022/11/08 10:50:42;;;;;;;5.40;3.83;;;;;;;;;;5059315;28;20284;-63
2022/11/08 10:53:13;;;;;;;5.22;4.03;;;;;;;;;;5058208;28;20240;-63
2022/11/08 10:55:46;;;;;;;9.10;4.18;;;;;;;;;;5053985;28;20226;-63
2022/11/08 10:58:27;;;;;;;5.15;4.15;;;;;;;;;;5043083;28;20213;-62
2022/11/08 11:00:59;;;;;;;9.95;5.20;;;;;;;;;;5056199;28;20219;-63
2022/11/08 11:03:29;;;;;;;10.15;4.70;;;;;;;;;;5043606;28;20213;-62
2022/11/08 11:05:57;;;;;;;10.98;5.63;;;;;;;;;;5038964;28;20508;-63
2022/11/08 11:08:24;;;;;;;8.63;5.65;;;;;;;;;;5048316;28;20208;-63
2022/11/08 11:10:50;;;;;;;10.20;5.57;;;;;;;;;;5049668;28;20491;-63
2022/11/08 11:13:20;;;;;;;7.68;5.40;;;;;;;;;;5049482;28;20220;-63
2022/11/08 11:15:48;;;;;;;10.40;6.28;;;;;;;;;;5058341;28;20244;-63
2022/11/08 11:18:27;;;;;;;11.98;5.50;;;;;;;;;;5058992;28;20223;-63
2022/11/08 11:20:59;;;;;;;9.18;5.50;;;;;;;;;;5059347;28;20215;-63
2022/11/08 11:23:31;;;;;;;7.70;5.30;;;;;;;;;;5050295;28;20385;-62
2022/11/08 11:25:58;;;;;;;6.05;4.40;;;;;;;;;;5048451;28;20220;-63
2022/11/08 11:28:25;;;;;;;5.95;4.50;;;;;;;;;;5058861;28;20627;-63
2022/11/08 11:30:58;;;;;;;10.80;4.55;;;;;;;;;;5058564;28;20423;-63
2022/11/08 11:33:26;;;;;;;5.30;4.00;;;;;;;;;;5058370;28;20413;-63
2022/11/08 11:35:54;;;;;;;3.85;3.50;;;;;;;;;;5058432;28;20233;-63
2022/11/08 11:38:28;;;;;;;4.03;3.67;;;;;;;;;;5053286;28;20217;-63
2022/11/08 11:40:55;;;;;;;8.57;3.58;;;;;;;;;;5050342;28;20236;-63
2022/11/08 11:43:25;;;;;;;4.18;3.60;;;;;;;;;;5037935;28;20214;-63
2022/11/08 11:45:54;;;;;;;7.43;3.28;;;;;;;;;;5039214;28;20206;-63
2022/11/08 11:48:24;;;;;;;3.92;3.53;;;;;;;;;;5038821;28;20225;-63
2022/11/08 11:50:50;;;;;;;4.00;3.67;;;;;;;;;;5039240;28;20216;-63
2022/11/08 11:53:19;;;;;;;3.80;3.15;;;;;;;;;;5043116;28;20212;-63
2022/11/08 11:55:51;;;;;;;6.53;3.83;;;;;;;;;;5052184;28;20537;-63
2022/11/08 11:58:21;;;;;;;8.75;3.53;;;;;;;;;;5040254;28;20851;-63
2022/11/08 12:00:51;;;;;;;6.30;3.50;;;;;;;;;;5038217;28;20531;-63
2022/11/08 12:03:43;;;;;;;9.02;3.83;;;;;;;;;;5045559;28;20213;-63
2022/11/08 12:06:15;;;;;;;9.55;3.53;;;;;;;;;;5037690;28;20209;-63
2022/11/08 12:08:53;;;;;;;7.43;3.63;;;;;;;;;;5036502;28;20851;-63
2022/11/08 12:11:29;;;;;;;11.77;3.13;;;;;;;;;;5045734;28;20455;-63
2022/11/08 12:14:04;;;;;;;4.53;2.90;;;;;;;;;;5050331;28;20201;-63
2022/11/08 12:16:35;;;;;;;5.40;3.33;;;;;;;;;;5058033;28;20235;-63
2022/11/08 12:19:08;;;;;;;6.50;3.75;;;;;;;;;;5057086;28;20217;-63
2022/11/08 12:21:40;;;;;;;10.75;4.38;;;;;;;;;;5057345;28;20605;-63
2022/11/08 12:24:10;;;;;;;8.77;4.47;;;;;;;;;;5055963;28;20691;-63
2022/11/08 12:26:41;;;;;;;6.00;3.67;;;;;;;;;;5048658;28;20205;-63
2022/11/08 12:29:18;;;;;;;5.75;3.58;;;;;;;;;;5057411;28;20247;-63
2022/11/08 12:31:47;;;;;;;8.98;3.75;;;;;;;;;;5050210;28;20214;-63
2022/11/08 12:34:18;;;;;;;10.20;3.42;;;;;;;;;;5038271;28;20520;-63
2022/11/08 12:36:47;;;;;;;5.72;3.55;;;;;;;;;;5038366;28;20236;-63
2022/11/08 12:39:19;;;;;;;10.43;3.80;;;;;;;;;;5056844;28;20216;-63
2022/11/08 12:41:52;;;;;;;5.30;3.17;;;;;;;;;;5058010;28;20220;-63
2022/11/08 12:44:37;;;;;;;7.20;3.33;;;;;;;;;;5040797;28;20218;-63
2022/11/08 12:47:11;;;;;;;7.43;3.20;;;;;;;;;;5038013;28;20355;-63
2022/11/08 12:49:39;;;;;;;4.40;2.53;;;;;;;;;;5038143;28;20441;-63
2022/11/08 12:52:16;;;;;;;7.43;3.00;;;;;;;;;;5053284;28;20394;-63
2022/11/08 12:54:45;;;;;;;7.38;2.85;;;;;;;;;;5037644;28;20214;-63
2022/11/08 12:57:15;;;;;;;5.82;2.63;;;;;;;;;;5056517;28;20225;-62
2022/11/08 12:59:42;;;;;;;12.98;3.45;;;;;;;;;;5055431;28;20209;-63
2022/11/08 13:02:15;;;;;;;6.07;3.10;;;;;;;;;;5055522;28;20217;-62
2022/11/08 13:04:45;;;;;;;9.15;3.22;;;;;;;;;;5035293;28;20214;-63
2022/11/08 13:07:16;;;;;;;9.85;3.40;;;;;;;;;;5052881;28;20582;-63
2022/11/08 13:09:45;;;;;;;5.50;2.88;;;;;;;;;;5052032;28;20220;-63
2022/11/08 13:12:26;;;;;;;6.63;2.83;;;;;;;;;;5055882;28;20244;-63
2022/11/08 13:14:54;;;;;;;5.20;2.75;;;;;;;;;;5046901;28;20213;-63
2022/11/08 13:17:23;;;;;;;5.13;2.70;;;;;;;;;;5050354;28;20607;-62
2022/11/08 13:19:54;;;;;;;4.40;3.05;;;;;;;;;;5040862;28;20360;-62
2022/11/08 13:22:35;;;;;;;8.90;3.30;;;;;;;;;;5049258;28;20211;-61
2022/11/08 13:25:02;;;;;;;3.78;3.13;;;;;;;;;;5054249;28;20228;-62
2022/11/08 13:27:32;;;;;;;9.50;3.35;;;;;;;;;;5050760;28;20240;-62
2022/11/08 13:30:02;;;;;;;4.35;2.90;;;;;;;;;;5049879;28;20216;-62
2022/11/08 13:32:37;;;;;;;4.75;2.50;;;;;;;;;;5049973;28;20209;-62
2022/11/08 13:35:06;;;;;;;2.88;2.33;;;;;;;;;;5051452;28;20476;-62
2022/11/08 13:37:41;;;;;;;6.75;2.55;;;;;;;;;;5048189;28;20222;-61
2022/11/08 13:40:20;;;;;;;3.55;2.60;;;;;;;;;;5038350;28;20369;-61
2022/11/08 13:42:58;;;;;;;4.07;2.53;;;;;;;;;;5039152;28;20311;-61
2022/11/08 13:45:27;;;;;;;5.28;2.45;;;;;;;;;;5040336;28;20252;-61
2022/11/08 13:48:05;;;;;;;6.85;2.55;;;;;;;;;;5052052;28;20499;-62
2022/11/08 13:51:01;;;;;;;2.88;2.63;;;;;;;;;;5058801;28;20208;-62
2022/11/08 13:53:53;;;;;;;6.38;2.65;;;;;;;;;;5058134;28;20216;-62
2022/11/08 13:56:41;;;;;;;3.70;2.10;;;;;;;;;;5059079;28;20209;-62
2022/11/08 13:59:25;;;;;;;6.40;2.65;;;;;;;;;;5059941;28;20213;-62
2022/11/08 14:02:02;;;;;;;7.03;2.70;;;;;;;;;;5058683;28;20231;-63
2022/11/08 14:04:30;;;;;;;3.85;2.50;;;;;;;;;;5040413;28;20304;-62
2022/11/08 14:07:00;;;;;;;6.20;2.40;;;;;;;;;;5038360;28;20388;-63
2022/11/08 14:09:29;;;;;;;4.97;2.63;;;;;;;;;;5044377;28;20209;-64
2022/11/08 14:11:58;;;;;;;4.55;2.05;;;;;;;;;;5038991;28;20206;-64
2022/11/08 14:14:29;;;;;;;2.90;2.35;;;;;;;;;;5058537;28;20197;-64
2022/11/08 14:17:14;;;;;;;2.50;2.30;;;;;;;;;;5054576;28;20264;-62
2022/11/08 14:19:43;;;;;;;2.88;2.10;;;;;;;;;;5038682;28;20415;-62
2022/11/08 14:22:13;;;;;;;6.07;2.72;;;;;;;;;;5038783;28;20210;-62
2022/11/08 14:24:40;;;;;;;3.92;2.85;;;;;;;;;;5049499;28;20220;-61
2022/11/08 14:27:06;;;;;;;3.22;2.72;;;;;;;;;;5047640;28;20201;-62
2022/11/08 14:29:32;;;;;;;4.60;2.88;;;;;;;;;;5039018;28;20213;-62
2022/11/08 14:32:03;;;;;;;5.18;2.95;;;;;;;;;;5039383;28;20205;-62
2022/11/08 14:34:31;;;;;;;4.50;3.00;;;;;;;;;;5038556;28;20258;-62
2022/11/08 14:36:59;;;;;;;7.18;3.05;;;;;;;;;;5046231;28;20229;-62
2022/11/08 14:39:27;;;;;;;7.70;2.80;;;;;;;;;;5043116;28;20456;-62
2022/11/08 14:41:55;;;;;;;6.40;2.85;;;;;;;;;;5046796;28;20271;-62
2022/11/08 14:44:21;;;;;;;5.80;2.83;;;;;;;;;;5039929;28;20501;-62
2022/11/08 14:46:48;;;;;;;9.38;3.08;;;;;;;;;;5038708;28;20285;-62
2022/11/08 14:49:19;;;;;;;7.63;2.80;;;;;;;;;;5038509;28;20209;-62
2022/11/08 14:51:45;;;;;;;7.47;2.97;;;;;;;;;;5038622;28;20450;-61
2022/11/08 14:54:16;;;;;;;7.70;3.38;;;;;;;;;;5038634;28;20210;-62
2022/11/08 14:56:43;;;;;;;8.57;3.13;;;;;;;;;;5052050;28;20236;-62
2022/11/08 14:59:11;;;;;;;4.60;3.25;;;;;;;;;;5058205;28;20233;-62
2022/11/08 15:01:38;;;;;;;6.05;3.25;;;;;;;;;;5058826;28;20231;-62
2022/11/08 15:04:06;;;;;;;4.65;2.72;;;;;;;;;;5057671;28;20412;-62
2022/11/08 15:06:34;;;;;;;7.70;3.50;;;;;;;;;;5055730;28;20240;-62
2022/11/08 15:09:05;;;;;;;10.75;4.10;;;;;;;;;;5058059;28;20215;-62